Time;durP1;ratioP1;P1;durP2;ratioP2;P2;SDS_P1;SDS_P2;PMS_P1;PMS_P2;Temp;Humidity;BMP_temperature;BMP_pressure;BME280_temperature;BME280_humidity;BME280_pressure;Samples;Min_cycle;Max_cycle;Signal;HPM_P1;HPM_P2
2021/03/15 00:01:37;;;;;;;78.65;31.95;;;7.80;75.00;;;;;;5022554;28;20033;-73
2021/03/15 00:04:03;;;;;;;97.75;38.00;;;7.80;75.00;;;;;;5024978;28;20395;-74
2021/03/15 00:06:29;;;;;;;100.45;39.53;;;7.90;74.90;;;;;;5025189;28;20026;-73
2021/03/15 00:08:55;;;;;;;129.70;47.88;;;7.90;74.90;;;;;;5023699;28;20369;-73
2021/03/15 00:11:20;;;;;;;152.95;54.95;;;7.90;74.70;;;;;;5025575;28;20033;-74
2021/03/15 00:13:46;;;;;;;151.43;54.92;;;7.90;74.70;;;;;;5024473;28;20033;-73
2021/03/15 00:16:11;;;;;;;148.48;55.58;;;7.90;74.50;;;;;;5024090;28;20514;-72
2021/03/15 00:18:37;;;;;;;172.10;58.65;;;7.90;74.40;;;;;;5025226;28;20017;-73
2021/03/15 00:21:03;;;;;;;138.15;52.85;;;7.90;74.40;;;;;;5023819;28;20522;-74
2021/03/15 00:23:29;;;;;;;131.48;49.88;;;7.80;74.30;;;;;;5024214;28;20112;-73
2021/03/15 00:25:55;;;;;;;124.60;48.55;;;7.80;74.30;;;;;;5025133;28;20109;-73
2021/03/15 00:28:20;;;;;;;134.07;48.13;;;7.70;74.40;;;;;;5023414;28;20029;-73
2021/03/15 00:30:46;;;;;;;130.73;49.17;;;7.80;74.60;;;;;;5024003;28;20083;-73
2021/03/15 00:33:12;;;;;;;119.82;46.03;;;7.70;74.50;;;;;;5024817;28;20037;-73
2021/03/15 00:35:38;;;;;;;111.63;45.78;;;7.70;74.40;;;;;;5023222;28;20367;-74
2021/03/15 00:38:04;;;;;;;125.47;48.78;;;7.70;74.30;;;;;;5023324;28;20029;-74
2021/03/15 00:40:29;;;;;;;91.32;39.65;;;7.70;74.40;;;;;;5023164;28;20077;-73
2021/03/15 00:42:56;;;;;;;101.43;39.22;;;7.70;74.40;;;;;;5022714;28;20037;-74
2021/03/15 00:45:24;;;;;;;99.38;40.90;;;7.80;74.40;;;;;;5024798;28;20026;-73
2021/03/15 00:47:50;;;;;;;93.80;37.80;;;7.80;74.30;;;;;;5023245;28;20060;-73
2021/03/15 00:50:42;;;;;;;103.18;41.17;;;7.80;74.30;;;;;;5022700;28;20057;-74
2021/03/15 00:53:12;;;;;;;69.78;30.83;;;7.80;74.30;;;;;;5022092;28;20116;-73
2021/03/15 00:55:38;;;;;;;74.88;31.75;;;7.80;74.00;;;;;;5022905;28;20014;-73
2021/03/15 00:58:05;;;;;;;70.65;31.65;;;7.80;73.90;;;;;;5024291;28;20026;-74
2021/03/15 01:00:36;;;;;;;68.07;30.85;;;7.80;74.00;;;;;;5024180;28;20026;-75
2021/03/15 01:03:02;;;;;;;81.40;31.70;;;7.80;74.00;;;;;;5017082;28;20113;-74
2021/03/15 01:05:50;;;;;;;65.97;30.65;;;7.80;74.00;;;;;;5024088;28;20375;-74
2021/03/15 01:08:17;;;;;;;59.83;28.83;;;7.80;74.10;;;;;;5024752;28;20057;-74
2021/03/15 01:10:44;;;;;;;60.25;28.88;;;7.90;74.00;;;;;;5023357;28;20092;-74
2021/03/15 01:13:10;;;;;;;56.35;27.90;;;7.90;73.90;;;;;;5005817;28;20021;-74
2021/03/15 01:15:38;;;;;;;57.13;27.05;;;7.90;74.50;;;;;;5024524;28;20037;-74
2021/03/15 01:18:04;;;;;;;54.35;27.40;;;8.00;73.90;;;;;;5023074;28;20037;-75
2021/03/15 01:20:30;;;;;;;51.75;27.27;;;8.00;73.70;;;;;;5023148;28;20026;-73
2021/03/15 01:22:57;;;;;;;53.83;27.95;;;8.00;73.50;;;;;;5024247;28;20104;-73
2021/03/15 01:25:34;;;;;;;47.72;25.70;;;8.00;73.40;;;;;;5022602;28;20034;-75
2021/03/15 01:28:02;;;;;;;46.13;25.55;;;8.00;73.30;;;;;;5024503;28;20026;-73
2021/03/15 01:30:29;;;;;;;52.97;26.48;;;8.10;73.30;;;;;;5022705;28;20073;-73
2021/03/15 01:32:56;;;;;;;48.53;26.20;;;8.00;73.10;;;;;;5022113;28;20433;-73
2021/03/15 01:35:22;;;;;;;53.67;26.90;;;8.00;73.20;;;;;;5051539;28;20030;-72
2021/03/15 01:37:48;;;;;;;67.82;31.27;;;8.00;73.30;;;;;;5023122;28;20021;-72
2021/03/15 01:40:14;;;;;;;96.68;36.47;;;8.10;73.30;;;;;;5022484;28;20512;-76
2021/03/15 01:42:40;;;;;;;115.90;41.75;;;8.10;73.10;;;;;;5022021;28;20073;-73
2021/03/15 01:45:06;;;;;;;117.70;43.30;;;8.10;72.90;;;;;;5023218;28;20049;-73
2021/03/15 01:47:33;;;;;;;100.47;41.25;;;8.00;73.00;;;;;;5023361;28;20033;-73
2021/03/15 01:49:59;;;;;;;92.47;38.78;;;8.00;72.90;;;;;;5021517;28;20030;-73
2021/03/15 01:52:25;;;;;;;67.78;31.80;;;8.00;72.80;;;;;;5022984;28;20047;-73
2021/03/15 01:54:51;;;;;;;71.65;32.05;;;8.00;72.70;;;;;;5023068;28;20073;-73
2021/03/15 01:57:16;;;;;;;66.38;31.52;;;7.90;72.70;;;;;;5021555;28;20041;-73
2021/03/15 01:59:42;;;;;;;53.10;26.27;;;7.90;72.80;;;;;;5021122;28;20022;-73
2021/03/15 02:02:08;;;;;;;51.30;26.48;;;7.90;72.80;;;;;;5022581;28;20376;-73
2021/03/15 02:04:34;;;;;;;53.47;27.27;;;7.80;72.80;;;;;;5021896;28;20129;-74
2021/03/15 02:06:59;;;;;;;48.92;26.00;;;7.80;73.00;;;;;;5023293;28;20423;-73
2021/03/15 02:09:27;;;;;;;53.35;25.95;;;7.80;73.10;;;;;;5020635;28;20064;-74
2021/03/15 02:12:26;;;;;;;51.92;27.13;;;7.70;73.20;;;;;;5021938;28;20371;-73
2021/03/15 02:15:07;;;;;;;51.58;25.70;;;7.70;73.30;;;;;;5021940;28;20041;-73
2021/03/15 02:17:52;;;;;;;50.05;26.63;;;7.70;73.20;;;;;;5021822;28;20049;-73
2021/03/15 02:20:40;;;;;;;48.80;25.67;;;7.70;73.30;;;;;;5022778;28;20031;-74
2021/03/15 02:23:24;;;;;;;49.80;24.63;;;7.60;73.30;;;;;;5019732;28;20030;-74
2021/03/15 02:26:08;;;;;;;50.72;25.35;;;7.60;73.30;;;;;;5020863;28;20427;-74
2021/03/15 02:28:48;;;;;;;48.72;25.20;;;7.60;73.40;;;;;;5021970;28;20550;-74
2021/03/15 02:31:36;;;;;;;48.35;25.15;;;7.60;73.60;;;;;;5021743;28;20141;-74
2021/03/15 02:34:21;;;;;;;49.72;25.27;;;7.60;73.60;;;;;;5018542;28;20379;-76
2021/03/15 02:36:50;;;;;;;50.20;25.27;;;7.60;73.70;;;;;;5019632;28;20022;-72
2021/03/15 02:39:28;;;;;;;48.42;24.48;;;7.60;73.80;;;;;;5019948;28;20598;-73
2021/03/15 02:41:59;;;;;;;46.30;24.33;;;7.60;73.80;;;;;;5024535;28;20112;-74
2021/03/15 02:44:26;;;;;;;50.47;24.90;;;7.60;73.90;;;;;;5033002;28;20087;-74
2021/03/15 02:46:52;;;;;;;49.75;25.25;;;7.60;74.00;;;;;;5033174;28;20029;-74
2021/03/15 02:49:19;;;;;;;50.00;25.00;;;7.60;74.00;;;;;;5033126;28;20135;-73
2021/03/15 02:51:48;;;;;;;46.47;25.23;;;7.60;74.00;;;;;;5032712;28;20554;-73
2021/03/15 02:54:14;;;;;;;53.00;24.73;;;7.60;74.00;;;;;;5032219;28;20057;-73
2021/03/15 02:56:43;;;;;;;53.15;25.20;;;7.70;74.20;;;;;;5033076;28;20054;-72
2021/03/15 02:59:11;;;;;;;53.10;26.10;;;7.70;74.00;;;;;;5031604;28;20157;-73
2021/03/15 03:01:39;;;;;;;61.55;29.08;;;7.70;74.00;;;;;;5033187;28;20030;-72
2021/03/15 03:04:08;;;;;;;63.00;29.52;;;7.70;73.90;;;;;;5032908;28;20029;-73
2021/03/15 03:06:36;;;;;;;67.28;30.10;;;7.70;74.00;;;;;;5032739;28;20079;-72
2021/03/15 03:09:04;;;;;;;76.15;33.92;;;7.80;74.00;;;;;;5033009;28;20036;-73
2021/03/15 03:11:30;;;;;;;88.80;36.72;;;7.80;74.10;;;;;;5033177;28;20348;-72
2021/03/15 03:13:58;;;;;;;86.72;37.92;;;7.80;74.10;;;;;;5033203;28;20398;-73
2021/03/15 03:16:33;;;;;;;88.95;38.90;;;7.80;74.00;;;;;;5032892;28;20194;-73
2021/03/15 03:18:59;;;;;;;;;;;7.80;74.00;;;;;;5033289;28;20036;-74
2021/03/15 03:21:26;;;;;;;104.97;42.53;;;7.80;74.00;;;;;;5032762;28;20000;-73
2021/03/15 03:23:54;;;;;;;95.43;39.03;;;7.80;74.00;;;;;;5032767;28;20034;-74
2021/03/15 03:26:28;;;;;;;91.47;38.00;;;7.80;74.20;;;;;;5032603;28;20030;-73
2021/03/15 03:28:56;;;;;;;92.43;40.28;;;7.80;74.50;;;;;;5031389;28;20025;-73
2021/03/15 03:31:25;;;;;;;104.80;43.00;;;7.80;74.40;;;;;;5032716;28;20042;-73
2021/03/15 03:33:51;;;;;;;125.03;49.63;;;7.80;74.30;;;;;;5032042;28;20026;-73
2021/03/15 03:36:17;;;;;;;124.50;47.50;;;7.80;74.60;;;;;;5036360;28;20026;-72
2021/03/15 03:38:44;;;;;;;124.38;49.65;;;7.90;74.80;;;;;;5036276;28;20321;-72
2021/03/15 03:41:10;;;;;;;121.05;45.30;;;7.90;74.80;;;;;;5036526;28;20030;-73
2021/03/15 03:43:37;;;;;;;84.75;36.15;;;7.90;74.90;;;;;;5036120;28;20029;-73
2021/03/15 03:46:04;;;;;;;74.78;33.38;;;8.00;74.80;;;;;;5036364;28;20455;-73
2021/03/15 03:48:31;;;;;;;68.22;31.50;;;8.00;74.70;;;;;;5036269;28;20030;-73
2021/03/15 03:50:58;;;;;;;63.42;31.23;;;8.00;74.50;;;;;;5035010;28;20123;-73
2021/03/15 03:53:59;;;;;;;87.80;37.70;;;8.10;74.50;;;;;;5036653;28;20061;-73
2021/03/15 03:56:34;;;;;;;75.85;33.75;;;8.10;74.40;;;;;;5036546;28;20394;-73
2021/03/15 03:59:00;;;;;;;102.75;44.05;;;8.10;74.10;;;;;;5036607;28;20058;-72
2021/03/15 04:01:35;;;;;;;84.80;37.00;;;8.10;74.20;;;;;;5034962;28;20029;-73
2021/03/15 04:04:02;;;;;;;77.68;35.38;;;8.20;74.30;;;;;;5036262;28;20048;-73
2021/03/15 04:06:31;;;;;;;85.10;35.33;;;8.20;74.10;;;;;;5035893;28;20025;-73
2021/03/15 04:09:01;;;;;;;79.80;35.05;;;8.20;74.30;;;;;;5035832;28;20372;-74
2021/03/15 04:11:31;;;;;;;66.25;34.38;;;8.20;74.30;;;;;;5035805;28;20029;-72
2021/03/15 04:13:58;;;;;;;67.22;32.30;;;8.30;74.20;;;;;;5035963;28;20113;-73
2021/03/15 04:16:31;;;;;;;65.35;30.58;;;8.20;74.20;;;;;;5036198;28;20153;-74
2021/03/15 04:19:00;;;;;;;60.92;30.45;;;8.30;74.20;;;;;;5036055;28;20104;-72
2021/03/15 04:21:28;;;;;;;63.40;30.27;;;8.30;74.30;;;;;;5036436;28;20029;-73
2021/03/15 04:23:56;;;;;;;67.65;31.75;;;8.30;74.30;;;;;;5037784;28;20065;-73
2021/03/15 04:26:24;;;;;;;70.63;31.90;;;8.30;74.20;;;;;;5037902;28;20097;-72
2021/03/15 04:28:50;;;;;;;66.45;31.98;;;8.30;74.30;;;;;;5036347;28;20029;-72
2021/03/15 04:31:17;;;;;;;70.00;33.50;;;8.30;74.50;;;;;;5036533;28;20343;-73
2021/03/15 04:33:44;;;;;;;68.00;31.50;;;8.30;74.60;;;;;;5035481;28;20108;-72
2021/03/15 04:36:15;;;;;;;68.70;32.40;;;8.40;74.60;;;;;;5035861;28;20041;-74
2021/03/15 04:38:42;;;;;;;71.43;34.55;;;8.40;74.50;;;;;;5035580;28;20025;-73
2021/03/15 04:41:09;;;;;;;71.30;34.45;;;8.40;74.40;;;;;;5034546;28;20493;-73
2021/03/15 04:43:38;;;;;;;74.10;34.25;;;8.40;74.20;;;;;;5035885;28;20030;-72
2021/03/15 04:46:05;;;;;;;78.93;35.10;;;8.40;74.20;;;;;;5035513;28;20033;-73
2021/03/15 04:48:30;;;;;;;77.82;35.20;;;8.30;74.30;;;;;;5035567;28;20079;-73
2021/03/15 04:51:02;;;;;;;75.22;32.28;;;8.30;74.50;;;;;;5035111;28;20041;-73
2021/03/15 04:53:29;;;;;;;83.32;35.20;;;8.30;74.50;;;;;;5032771;28;20060;-73
2021/03/15 04:56:03;;;;;;;85.28;38.05;;;8.30;74.70;;;;;;4998564;28;20323;-72
2021/03/15 04:58:30;;;;;;;77.40;35.15;;;8.30;74.80;;;;;;5014808;28;20391;-73
2021/03/15 05:01:00;;;;;;;77.00;37.22;;;8.30;74.90;;;;;;5015405;28;20033;-73
2021/03/15 05:03:27;;;;;;;83.72;35.70;;;8.30;75.10;;;;;;5015009;28;20034;-74
2021/03/15 05:05:54;;;;;;;80.38;36.72;;;8.30;75.10;;;;;;5015042;28;20022;-73
2021/03/15 05:08:24;;;;;;;92.78;39.03;;;8.30;75.00;;;;;;5022615;28;20034;-73
2021/03/15 05:10:52;;;;;;;80.05;36.60;;;8.40;75.20;;;;;;5013700;28;20448;-73
2021/03/15 05:13:19;;;;;;;83.72;39.28;;;8.40;75.00;;;;;;5013743;28;20210;-73
2021/03/15 05:15:46;;;;;;;90.53;39.40;;;8.40;75.00;;;;;;5015075;28;20037;-74
2021/03/15 05:18:14;;;;;;;87.53;39.20;;;8.30;74.90;;;;;;5014694;28;20026;-73
2021/03/15 05:20:41;;;;;;;73.47;34.85;;;8.40;75.20;;;;;;5014580;28;20459;-74
2021/03/15 05:23:09;;;;;;;81.45;34.70;;;8.40;75.40;;;;;;5015019;28;20397;-73
2021/03/15 05:25:38;;;;;;;91.10;36.70;;;8.50;75.20;;;;;;5013429;28;20045;-74
2021/03/15 05:28:06;;;;;;;79.32;33.40;;;8.50;75.50;;;;;;5014540;28;20022;-74
2021/03/15 05:30:34;;;;;;;79.85;34.47;;;8.50;75.00;;;;;;5013369;28;20511;-73
2021/03/15 05:33:03;;;;;;;72.03;32.17;;;8.50;75.20;;;;;;5014158;28;20510;-73
2021/03/15 05:35:30;;;;;;;109.95;39.58;;;8.40;75.30;;;;;;5014267;28;20029;-74
2021/03/15 05:37:57;;;;;;;99.82;39.20;;;8.50;75.50;;;;;;5013107;28;20030;-73
2021/03/15 05:40:25;;;;;;;81.35;32.08;;;8.50;75.30;;;;;;5018074;28;20063;-74
2021/03/15 05:43:15;;;;;;;67.57;30.27;;;8.50;75.20;;;;;;5013828;28;20018;-74
2021/03/15 05:46:02;;;;;;;60.50;29.02;;;8.50;75.20;;;;;;5014763;28;20026;-74
2021/03/15 05:49:05;;;;;;;62.83;27.98;;;8.50;75.10;;;;;;5014072;28;20026;-73
2021/03/15 05:51:52;;;;;;;65.13;30.98;;;8.50;75.30;;;;;;5013719;28;20077;-73
2021/03/15 05:54:42;;;;;;;59.15;27.52;;;8.50;75.30;;;;;;5014059;28;20388;-73
2021/03/15 05:57:56;;;;;;;63.70;28.55;;;8.50;75.20;;;;;;5013376;28;20395;-73
2021/03/15 06:00:43;;;;;;;62.17;27.65;;;8.50;75.20;;;;;;5011974;28;20447;-73
2021/03/15 06:03:30;;;;;;;59.15;28.98;;;8.50;75.30;;;;;;5013576;28;20396;-74
2021/03/15 06:05:59;;;;;;;67.30;29.48;;;8.50;75.30;;;;;;5013725;28;20392;-73
2021/03/15 06:08:34;;;;;;;59.97;27.95;;;8.60;75.30;;;;;;5013687;28;20105;-74
2021/03/15 06:11:07;;;;;;;57.67;27.13;;;8.60;75.60;;;;;;5014157;28;20034;-72
2021/03/15 06:13:34;;;;;;;57.85;26.73;;;8.60;75.40;;;;;;5012401;28;20037;-73
2021/03/15 06:16:05;;;;;;;55.42;26.40;;;8.60;75.20;;;;;;5013762;28;20037;-73
2021/03/15 06:18:31;;;;;;;57.80;26.20;;;8.60;75.10;;;;;;5013522;28;20034;-73
2021/03/15 06:20:58;;;;;;;61.67;27.30;;;8.60;75.10;;;;;;5013895;28;20106;-74
2021/03/15 06:23:24;;;;;;;55.05;28.17;;;8.60;74.90;;;;;;5013606;28;20109;-74
2021/03/15 06:25:51;;;;;;;58.00;27.25;;;8.50;75.00;;;;;;5013521;28;20032;-74
2021/03/15 06:28:18;;;;;;;53.03;26.15;;;8.50;75.20;;;;;;5013465;28;20034;-75
2021/03/15 06:30:47;;;;;;;62.05;28.83;;;8.50;75.60;;;;;;5013361;28;20040;-73
2021/03/15 06:33:14;;;;;;;66.07;29.38;;;8.50;75.60;;;;;;5013899;28;20391;-74
2021/03/15 06:35:43;;;;;;;62.22;28.27;;;8.60;75.70;;;;;;5013207;28;20026;-73
2021/03/15 06:38:09;;;;;;;59.88;27.48;;;8.60;75.90;;;;;;5012071;28;20036;-74
2021/03/15 06:40:38;;;;;;;59.50;26.98;;;8.70;76.10;;;;;;5013226;28;20045;-73
2021/03/15 06:43:04;;;;;;;62.40;29.55;;;8.70;75.50;;;;;;5013169;28;20029;-73
2021/03/15 06:45:31;;;;;;;58.65;26.13;;;8.80;75.50;;;;;;5012757;28;20491;-73
2021/03/15 06:47:58;;;;;;;59.72;27.10;;;8.80;75.60;;;;;;5012947;28;20141;-74
2021/03/15 06:50:24;;;;;;;60.17;27.38;;;8.80;75.40;;;;;;5013209;28;20029;-74
2021/03/15 06:52:53;;;;;;;57.42;26.48;;;8.70;75.50;;;;;;5011843;28;20030;-73
2021/03/15 06:55:19;;;;;;;54.40;26.13;;;8.80;75.70;;;;;;5012643;28;20046;-76
2021/03/15 06:57:45;;;;;;;53.97;26.00;;;8.80;75.50;;;;;;5012306;28;20025;-74
2021/03/15 07:00:12;;;;;;;54.42;25.80;;;8.70;75.80;;;;;;5012536;28;20032;-74
2021/03/15 07:02:38;;;;;;;53.65;25.67;;;8.80;76.10;;;;;;5011967;28;20026;-74
2021/03/15 07:05:09;;;;;;;56.10;25.35;;;8.80;76.10;;;;;;5011481;28;20464;-73
2021/03/15 07:07:57;;;;;;;53.38;26.40;;;8.90;75.80;;;;;;5010451;28;20030;-74
2021/03/15 07:10:25;;;;;;;50.40;24.75;;;9.00;75.90;;;;;;5015066;28;20113;-74
2021/03/15 07:13:07;;;;;;;56.67;27.27;;;9.10;75.80;;;;;;5016078;28;20519;-74
2021/03/15 07:15:33;;;;;;;52.63;24.48;;;9.10;75.50;;;;;;5014492;28;20431;-75
2021/03/15 07:18:24;;;;;;;56.65;25.98;;;9.20;75.60;;;;;;5015718;28;20062;-74
2021/03/15 07:20:58;;;;;;;58.75;25.75;;;9.30;75.10;;;;;;5014425;28;20040;-73
2021/03/15 07:23:43;;;;;;;55.75;26.15;;;9.30;75.20;;;;;;5015429;28;20548;-75
2021/03/15 07:26:15;;;;;;;54.17;25.90;;;9.30;75.10;;;;;;5015653;28;20119;-73
2021/03/15 07:28:42;;;;;;;56.97;24.98;;;9.30;74.70;;;;;;5015224;28;20440;-73
2021/03/15 07:31:20;;;;;;;61.13;27.10;;;9.30;74.70;;;;;;5015329;28;20026;-73
2021/03/15 07:34:05;;;;;;;54.92;24.90;;;9.30;74.90;;;;;;5015572;28;20112;-73
2021/03/15 07:36:32;;;;;;;50.72;23.75;;;9.40;74.90;;;;;;5015182;28;20053;-74
2021/03/15 07:39:00;;;;;;;58.55;26.65;;;9.40;74.80;;;;;;5015432;28;20055;-75
2021/03/15 07:41:26;;;;;;;59.65;25.67;;;9.40;74.50;;;;;;5013930;28;20058;-74
2021/03/15 07:43:53;;;;;;;51.00;24.83;;;9.40;74.60;;;;;;5013826;28;20494;-73
2021/03/15 07:46:20;;;;;;;53.30;26.35;;;9.40;74.50;;;;;;5015106;28;20029;-73
2021/03/15 07:48:46;;;;;;;54.78;28.17;;;9.40;74.60;;;;;;5019728;28;20348;-74
2021/03/15 07:51:12;;;;;;;57.58;28.08;;;9.50;74.70;;;;;;5014790;28;20049;-74
2021/03/15 07:53:43;;;;;;;57.60;27.60;;;9.60;74.60;;;;;;4985259;28;856438;-73
2021/03/15 07:56:10;;;;;;;52.67;27.27;;;9.80;74.30;;;;;;5016330;28;20034;-73
2021/03/15 07:58:40;;;;;;;62.30;30.02;;;9.90;73.70;;;;;;5021087;28;20017;-73
2021/03/15 08:01:07;;;;;;;68.07;33.53;;;10.00;73.20;;;;;;5025678;28;20545;-73
2021/03/15 08:03:39;;;;;;;63.40;31.60;;;10.10;72.80;;;;;;5026176;28;20276;-74
2021/03/15 08:06:06;;;;;;;59.13;29.48;;;10.20;72.30;;;;;;5024239;28;20087;-73
2021/03/15 08:08:33;;;;;;;57.75;29.10;;;10.30;72.00;;;;;;5024508;28;20025;-75
2021/03/15 08:11:00;;;;;;;62.97;30.77;;;10.50;71.60;;;;;;5025076;28;20034;-75
2021/03/15 08:13:29;;;;;;;59.00;30.83;;;10.50;71.20;;;;;;5024326;28;20032;-74
2021/03/15 08:15:59;;;;;;;63.60;30.63;;;10.60;70.50;;;;;;5025602;28;20022;-74
2021/03/15 08:18:31;;;;;;;58.33;27.98;;;10.60;70.10;;;;;;5023599;28;20028;-75
2021/03/15 08:21:20;;;;;;;54.53;28.45;;;10.70;69.90;;;;;;5020739;28;20060;-74
2021/03/15 08:23:48;;;;;;;61.70;28.90;;;10.70;69.70;;;;;;5023650;28;20024;-74
2021/03/15 08:26:15;;;;;;;65.15;28.95;;;10.60;69.50;;;;;;5023044;28;20460;-73
2021/03/15 08:28:42;;;;;;;57.20;28.13;;;10.70;69.60;;;;;;5024755;28;20030;-74
2021/03/15 08:31:26;;;;;;;56.58;28.83;;;10.70;69.50;;;;;;5023707;28;20513;-74
2021/03/15 08:33:54;;;;;;;74.80;33.60;;;10.70;69.10;;;;;;5056705;28;20022;-74
2021/03/15 08:36:21;;;;;;;60.92;28.80;;;10.70;69.20;;;;;;5023853;28;20026;-74
2021/03/15 08:38:47;;;;;;;61.75;30.13;;;10.70;68.90;;;;;;5023868;28;20026;-74
2021/03/15 08:41:23;;;;;;;58.40;28.33;;;10.70;68.70;;;;;;5024733;28;20104;-74
2021/03/15 08:43:52;;;;;;;65.55;29.02;;;10.70;68.30;;;;;;5024835;28;20026;-74
2021/03/15 08:46:17;;;;;;;53.00;28.10;;;10.70;68.10;;;;;;5020389;28;20489;-74
2021/03/15 08:48:47;;;;;;;55.72;28.08;;;10.70;68.20;;;;;;5024262;28;20021;-73
2021/03/15 08:51:16;;;;;;;50.03;25.20;;;10.70;68.00;;;;;;5024821;28;20458;-73
2021/03/15 08:53:44;;;;;;;58.00;27.40;;;10.60;68.10;;;;;;5023341;28;20085;-73
2021/03/15 08:56:33;;;;;;;54.70;26.13;;;10.70;68.00;;;;;;5025866;28;20025;-76
2021/03/15 08:59:00;;;;;;;52.33;27.23;;;10.70;68.10;;;;;;5036130;28;20379;-74
2021/03/15 09:01:27;;;;;;;49.72;25.90;;;10.80;68.20;;;;;;5023443;28;20041;-74
2021/03/15 09:03:57;;;;;;;53.67;26.20;;;10.80;67.90;;;;;;5023387;28;20021;-73
2021/03/15 09:06:38;;;;;;;57.08;27.63;;;10.80;67.60;;;;;;5023461;28;20044;-75
2021/03/15 09:09:14;;;;;;;50.47;26.52;;;10.80;67.50;;;;;;5020169;28;20112;-74
2021/03/15 09:11:46;;;;;;;48.15;26.42;;;10.90;67.60;;;;;;5020619;28;20380;-77
2021/03/15 09:16:46;;;;;;;53.70;28.30;;;11.00;67.40;;;;;;5023781;28;20051;-75
2021/03/15 09:19:32;;;;;;;54.05;27.70;;;11.10;67.20;;;;;;5024368;28;20037;-73
2021/03/15 09:21:59;;;;;;;55.60;29.65;;;11.10;66.90;;;;;;5022553;28;20032;-73
2021/03/15 09:24:46;;;;;;;60.25;30.98;;;11.20;66.70;;;;;;5021826;28;20025;-73
2021/03/15 09:27:28;;;;;;;67.40;30.40;;;11.10;66.20;;;;;;5023551;28;20022;-73
2021/03/15 09:30:06;;;;;;;69.05;30.30;;;11.10;66.10;;;;;;5023685;28;20021;-73
2021/03/15 09:32:41;;;;;;;71.18;30.02;;;11.10;66.30;;;;;;5023110;28;20391;-75
2021/03/15 09:35:29;;;;;;;64.68;30.75;;;11.20;66.20;;;;;;5022573;28;20105;-76
2021/03/15 09:38:00;;;;;;;60.25;30.85;;;11.10;65.80;;;;;;5023750;28;20025;-74
2021/03/15 09:40:28;;;;;;;77.13;37.10;;;11.20;65.90;;;;;;5023116;28;20021;-72
2021/03/15 09:42:54;;;;;;;85.53;41.00;;;11.20;65.70;;;;;;5020646;28;20112;-73
2021/03/15 09:45:32;;;;;;;79.63;37.70;;;11.10;65.70;;;;;;5024376;28;20504;-76
2021/03/15 09:47:59;;;;;;;93.47;40.90;;;11.20;65.60;;;;;;5019351;28;20026;-74
2021/03/15 09:50:27;;;;;;;78.60;36.47;;;11.20;65.60;;;;;;5022640;28;20071;-73
2021/03/15 09:53:04;;;;;;;62.75;29.63;;;11.20;65.50;;;;;;5023812;28;20061;-74
2021/03/15 09:55:30;;;;;;;76.40;36.40;;;11.30;65.40;;;;;;5023748;28;20045;-73
2021/03/15 09:58:04;;;;;;;82.45;40.60;;;11.30;65.50;;;;;;5021279;28;20026;-74
2021/03/15 10:00:29;;;;;;;69.50;34.28;;;11.30;65.20;;;;;;5022164;28;20025;-73
2021/03/15 10:02:55;;;;;;;61.78;33.05;;;11.30;65.10;;;;;;5022187;28;20113;-73
2021/03/15 10:05:21;;;;;;;67.70;34.83;;;11.30;64.80;;;;;;5022052;28;20459;-76
2021/03/15 10:07:47;;;;;;;68.55;33.90;;;11.30;64.90;;;;;;5020849;28;20104;-73
2021/03/15 10:10:16;;;;;;;70.57;34.88;;;11.20;64.80;;;;;;5020878;28;20033;-74
2021/03/15 10:12:42;;;;;;;98.07;42.00;;;11.20;65.00;;;;;;5022554;28;20033;-73
2021/03/15 10:15:10;;;;;;;80.65;36.38;;;11.20;65.20;;;;;;5026013;28;20071;-73
2021/03/15 10:17:36;;;;;;;69.88;33.78;;;11.20;65.30;;;;;;5031684;28;20025;-74
2021/03/15 10:20:08;;;;;;;69.13;32.85;;;11.30;65.60;;;;;;5033691;28;20051;-73
2021/03/15 10:22:35;;;;;;;54.13;27.30;;;11.40;65.60;;;;;;5024559;28;20696;-74
2021/03/15 10:25:02;;;;;;;53.92;27.55;;;11.60;65.60;;;;;;5013470;28;20034;-73
2021/03/15 10:27:29;;;;;;;56.03;28.55;;;11.70;65.30;;;;;;5013297;28;20033;-74
2021/03/15 10:30:06;;;;;;;52.03;27.40;;;11.80;65.10;;;;;;5013567;28;20038;-73
2021/03/15 10:32:32;;;;;;;50.50;25.45;;;12.00;64.90;;;;;;5014168;28;20388;-73
2021/03/15 10:35:00;;;;;;;49.63;26.00;;;12.10;64.70;;;;;;5022274;28;20038;-75
2021/03/15 10:37:30;;;;;;;45.17;26.90;;;12.20;64.50;;;;;;5023156;28;20025;-75
2021/03/15 10:39:56;;;;;;;52.40;27.85;;;12.30;64.20;;;;;;5018390;28;20036;-74
2021/03/15 10:42:23;;;;;;;49.53;26.20;;;12.40;64.00;;;;;;5021303;28;20025;-74
2021/03/15 10:44:50;;;;;;;47.63;26.50;;;12.50;63.70;;;;;;5020686;28;20025;-74
2021/03/15 10:47:35;;;;;;;46.00;25.40;;;12.50;63.40;;;;;;5023130;28;20088;-73
2021/03/15 10:50:03;;;;;;;47.80;26.33;;;12.50;63.00;;;;;;5053819;28;20112;-73
2021/03/15 10:52:31;;;;;;;44.25;24.38;;;12.50;63.10;;;;;;5022898;28;20056;-73
2021/03/15 10:55:14;;;;;;;45.08;25.05;;;12.40;63.00;;;;;;5030547;28;20050;-74
2021/03/15 10:58:00;;;;;;;46.92;24.50;;;12.40;63.00;;;;;;5024652;28;20030;-73
2021/03/15 11:00:28;;;;;;;45.42;25.08;;;12.50;63.20;;;;;;5032911;28;20064;-74
2021/03/15 11:02:54;;;;;;;47.00;24.20;;;12.60;63.10;;;;;;5032802;28;20057;-74
2021/03/15 11:05:20;;;;;;;48.45;24.90;;;12.60;62.90;;;;;;5031662;28;20111;-74
2021/03/15 11:07:46;;;;;;;50.35;25.13;;;12.60;62.90;;;;;;5033063;28;20026;-73
2021/03/15 11:10:18;;;;;;;42.65;24.77;;;12.60;62.70;;;;;;5032919;28;20072;-74
2021/03/15 11:12:45;;;;;;;48.72;26.13;;;12.60;62.60;;;;;;5032505;28;20479;-74
2021/03/15 11:15:14;;;;;;;45.75;26.20;;;12.50;62.60;;;;;;5031664;28;20017;-74
2021/03/15 11:17:42;;;;;;;45.83;24.58;;;12.50;62.70;;;;;;5031500;28;20025;-73
2021/03/15 11:20:11;;;;;;;46.67;25.10;;;12.50;62.60;;;;;;5033055;28;20047;-74
2021/03/15 11:22:51;;;;;;;44.88;25.20;;;12.50;62.60;;;;;;5032779;28;20075;-74
2021/03/15 11:25:18;;;;;;;49.83;26.20;;;12.40;62.70;;;;;;5032511;28;20033;-74
2021/03/15 11:27:49;;;;;;;45.33;24.80;;;12.30;63.50;;;;;;5032680;28;20025;-74
2021/03/15 11:30:27;;;;;;;50.17;26.23;;;12.20;63.10;;;;;;5032883;28;20086;-74
2021/03/15 11:33:10;;;;;;;50.33;26.63;;;12.10;63.00;;;;;;5032503;28;20033;-75
2021/03/15 11:35:40;;;;;;;54.97;28.45;;;11.90;63.40;;;;;;5032554;28;20033;-73
2021/03/15 11:38:07;;;;;;;51.92;27.63;;;11.70;63.80;;;;;;5032784;28;20057;-74
2021/03/15 11:40:41;;;;;;;54.95;29.05;;;11.60;64.30;;;;;;5032374;28;20033;-73
2021/03/15 11:43:12;;;;;;;50.97;28.38;;;11.50;64.90;;;;;;5023278;28;20042;-74
2021/03/15 11:45:38;;;;;;;56.10;27.98;;;11.50;65.20;;;;;;5012731;28;20030;-72
2021/03/15 11:48:04;;;;;;;51.47;26.77;;;11.50;65.60;;;;;;5013279;28;20022;-73
2021/03/15 11:50:34;;;;;;;49.08;26.75;;;11.60;66.10;;;;;;5012665;28;20026;-74
2021/03/15 11:53:02;;;;;;;52.03;27.70;;;11.80;66.50;;;;;;5023076;28;20038;-74
2021/03/15 11:55:28;;;;;;;48.65;27.52;;;12.10;66.70;;;;;;5020432;28;20129;-79
2021/03/15 11:57:53;;;;;;;49.10;26.08;;;12.40;66.60;;;;;;5025912;28;20112;-75
2021/03/15 12:00:21;;;;;;;45.40;26.05;;;12.80;66.40;;;;;;5016400;28;20026;-74
2021/03/15 12:02:48;;;;;;;45.55;26.35;;;13.40;66.00;;;;;;5016004;28;20112;-73
2021/03/15 12:05:15;;;;;;;45.28;25.92;;;14.10;65.40;;;;;;5016346;28;20048;-73
2021/03/15 12:07:41;;;;;;;37.08;24.65;;;15.10;65.10;;;;;;5016086;28;20026;-74
2021/03/15 12:10:10;;;;;;;38.60;24.30;;;16.40;63.90;;;;;;5015533;28;20479;-74
2021/03/15 12:12:36;;;;;;;34.10;21.80;;;17.80;61.50;;;;;;5015889;28;20041;-74
2021/03/15 12:15:06;;;;;;;36.80;22.27;;;19.00;59.00;;;;;;5015820;28;20415;-73
2021/03/15 12:17:33;;;;;;;33.10;21.27;;;20.30;56.30;;;;;;5016181;28;20117;-74
2021/03/15 12:20:00;;;;;;;31.42;20.33;;;21.20;53.60;;;;;;5016069;28;20021;-74
2021/03/15 12:22:26;;;;;;;28.10;19.38;;;22.00;50.70;;;;;;5016050;28;20026;-75
2021/03/15 12:24:51;;;;;;;28.63;19.38;;;22.50;48.60;;;;;;5015887;28;20034;-75
2021/03/15 12:27:17;;;;;;;25.08;19.05;;;22.80;46.60;;;;;;5013495;28;20034;-76
2021/03/15 12:29:43;;;;;;;26.60;19.10;;;22.60;45.10;;;;;;5015086;28;20026;-74
2021/03/15 12:32:09;;;;;;;31.08;20.55;;;21.90;44.60;;;;;;5014895;28;20061;-75
2021/03/15 12:34:36;;;;;;;30.70;20.38;;;21.10;44.60;;;;;;5015133;28;20034;-76
2021/03/15 12:37:02;;;;;;;28.02;19.23;;;20.20;45.00;;;;;;5015593;28;20160;-73
2021/03/15 12:39:28;;;;;;;30.85;20.85;;;19.30;45.70;;;;;;5015806;28;20040;-75
2021/03/15 12:41:55;;;;;;;31.92;20.27;;;18.40;46.50;;;;;;5015685;28;20112;-75
2021/03/15 12:44:20;;;;;;;30.80;19.92;;;17.60;47.70;;;;;;5020409;28;20021;-73
2021/03/15 12:46:46;;;;;;;36.38;20.92;;;16.90;48.80;;;;;;5034913;28;20093;-75
2021/03/15 12:49:12;;;;;;;34.60;19.42;;;16.30;49.80;;;;;;5035072;28;20060;-75
2021/03/15 12:51:38;;;;;;;29.83;19.60;;;15.80;50.60;;;;;;5034657;28;20065;-77